Time,TemperatureF,DewpointF,PressureIn,WindDirection,WindDirectionDegrees,WindSpeedMPH,WindSpeedGustMPH,Humidity,HourlyPrecipIn,Conditions,Clouds,dailyrainin,SoftwareType,DateUTC
2013-04-15 00:00:00,32.3,30.0,30.21,SE,134,0.0,0.0,91,0.00,,,0.01,Wunderground v.1.15,2013-04-15 04:00:00,
2013-04-15 00:05:00,32.3,30.2,30.21,SE,134,0.0,0.0,92,0.00,,,0.00,Wunderground v.1.15,2013-04-15 04:05:00,
2013-04-15 00:10:00,32.3,30.2,30.21,SE,134,0.0,0.0,92,0.00,,,0.00,Wunderground v.1.15,2013-04-15 04:10:00,
2013-04-15 00:15:00,32.1,30.0,30.22,SE,134,0.0,0.0,92,0.00,,,0.00,Wunderground v.1.15,2013-04-15 04:15:00,
2013-04-15 00:20:00,31.9,29.8,30.22,SE,134,0.0,0.0,92,0.00,,,0.00,Wunderground v.1.15,2013-04-15 04:20:00,
2013-04-15 00:30:00,31.4,29.3,30.22,SE,134,0.0,0.0,92,0.00,,,0.00,Wunderground v.1.15,2013-04-15 04:30:00,
2013-04-15 00:35:00,31.4,29.6,30.22,SE,134,0.0,0.0,93,0.00,,,0.00,Wunderground v.1.15,2013-04-15 04:35:00,
2013-04-15 00:45:00,31.0,29.2,30.23,SE,134,0.0,0.0,93,0.00,,,0.00,Wunderground v.1.15,2013-04-15 04:45:00,
2013-04-15 00:50:00,31.0,29.2,30.22,SE,134,0.0,0.0,93,0.00,,,0.00,Wunderground v.1.15,2013-04-15 04:50:00,
2013-04-15 01:00:00,30.9,29.4,30.23,SE,134,0.0,0.0,94,0.00,,,0.00,Wunderground v.1.15,2013-04-15 05:00:00,
2013-04-15 01:05:00,30.9,29.4,30.22,SE,134,0.0,0.0,94,0.00,,,0.00,Wunderground v.1.15,2013-04-15 05:05:00,
2013-04-15 01:15:00,30.5,29.0,30.22,SE,134,0.0,0.0,94,0.00,,,0.00,Wunderground v.1.15,2013-04-15 05:15:00,
2013-04-15 01:25:00,30.1,28.6,30.23,SE,134,0.0,0.0,94,0.00,,,0.00,Wunderground v.1.15,2013-04-15 05:25:00,
2013-04-15 01:30:00,30.2,28.7,30.23,SE,134,0.0,0.0,94,0.00,,,0.00,Wunderground v.1.15,2013-04-15 05:30:00,
2013-04-15 01:40:00,30.8,29.5,30.23,SSE,148,0.0,1.0,95,0.00,,,0.00,Wunderground v.1.15,2013-04-15 05:40:00,
2013-04-15 01:45:00,31.1,29.8,30.23,SSE,152,0.0,1.0,95,0.00,,,0.00,Wunderground v.1.15,2013-04-15 05:45:00,
2013-04-15 01:55:00,31.6,30.3,30.23,SSE,152,0.0,0.0,95,0.00,,,0.00,Wunderground v.1.15,2013-04-15 05:55:00,
2013-04-15 02:00:00,32.2,30.9,30.23,SSE,152,0.0,0.0,95,0.00,,,0.00,Wunderground v.1.15,2013-04-15 06:00:00,
2013-04-15 02:05:00,32.6,31.3,30.23,SSE,154,0.0,0.0,95,0.00,,,0.00,Wunderground v.1.15,2013-04-15 06:05:00,
2013-04-15 02:15:00,32.9,30.8,30.23,SSE,153,0.0,0.0,92,0.00,,,0.00,Wunderground v.1.15,2013-04-15 06:15:00,
2013-04-15 02:25:00,33.0,30.7,30.23,SSE,153,0.0,0.0,91,0.00,,,0.00,Wunderground v.1.15,2013-04-15 06:25:00,
2013-04-15 02:30:00,32.9,30.0,30.23,SSE,153,0.0,0.0,89,0.00,,,0.00,Wunderground v.1.15,2013-04-15 06:30:00,
2013-04-15 02:40:00,32.3,29.7,30.23,SSE,153,0.0,0.0,90,0.00,,,0.00,Wunderground v.1.15,2013-04-15 06:40:00,
2013-04-15 02:45:00,32.1,29.8,30.23,SSE,153,0.0,1.0,91,0.00,,,0.00,Wunderground v.1.15,2013-04-15 06:45:00,
2013-04-15 02:55:00,32.8,30.7,30.23,South,175,0.0,1.0,92,0.00,,,0.00,Wunderground v.1.15,2013-04-15 06:55:00,
2013-04-15 03:00:00,32.9,30.3,30.23,South,175,0.0,0.0,90,0.00,,,0.00,Wunderground v.1.15,2013-04-15 07:00:00,
2013-04-15 03:05:00,33.4,30.8,30.23,North,355,0.0,0.0,90,0.00,,,0.00,Wunderground v.1.15,2013-04-15 07:05:00,
2013-04-15 03:45:00,31.9,29.6,30.24,North,360,0.0,0.0,91,0.00,,,0.00,Wunderground v.1.15,2013-04-15 07:45:00,
2013-04-15 03:50:00,31.6,29.3,30.24,North,360,0.0,0.0,91,0.00,,,0.00,Wunderground v.1.15,2013-04-15 07:50:00,
2013-04-15 03:55:00,31.4,29.1,30.24,North,360,0.0,0.0,91,0.00,,,0.00,Wunderground v.1.15,2013-04-15 07:55:00,
2013-04-15 04:00:00,31.2,28.9,30.24,North,360,0.0,0.0,91,0.00,,,0.00,Wunderground v.1.15,2013-04-15 08:00:00,
2013-04-15 04:05:00,31.0,28.7,30.24,North,360,0.0,0.0,91,0.00,,,0.00,Wunderground v.1.15,2013-04-15 08:05:00,
2013-04-15 04:15:00,30.7,28.7,30.25,North,360,0.0,0.0,92,0.00,,,0.00,Wunderground v.1.15,2013-04-15 08:15:00,
2013-04-15 04:25:00,30.9,29.1,30.25,ESE,109,0.0,2.0,93,0.00,,,0.00,Wunderground v.1.15,2013-04-15 08:25:00,
2013-04-15 04:35:00,30.7,28.7,30.26,ESE,109,0.0,0.0,92,0.00,,,0.00,Wunderground v.1.15,2013-04-15 08:35:00,
2013-04-15 04:40:00,30.5,28.5,30.26,ESE,109,0.0,0.0,92,0.00,,,0.00,Wunderground v.1.15,2013-04-15 08:40:00,
2013-04-15 04:45:00,30.4,28.4,30.26,ESE,109,0.0,0.0,92,0.00,,,0.00,Wunderground v.1.15,2013-04-15 08:45:00,
2013-04-15 04:50:00,30.3,28.3,30.27,ESE,109,0.0,0.0,92,0.00,,,0.00,Wunderground v.1.15,2013-04-15 08:50:00,
2013-04-15 04:55:00,30.3,28.5,30.27,ESE,109,0.0,0.0,93,0.00,,,0.00,Wunderground v.1.15,2013-04-15 08:55:00,
2013-04-15 05:05:00,30.0,28.2,30.27,ESE,109,0.0,0.0,93,0.00,,,0.00,Wunderground v.1.15,2013-04-15 09:05:00,
2013-04-15 05:15:00,29.7,27.9,30.27,ESE,109,0.0,0.0,93,0.00,,,0.00,Wunderground v.1.15,2013-04-15 09:15:00,
2013-04-15 05:20:00,29.5,27.7,30.27,ESE,109,0.0,0.0,93,0.00,,,0.00,Wunderground v.1.15,2013-04-15 09:20:00,
2013-04-15 05:25:00,29.3,27.5,30.28,ESE,109,0.0,0.0,93,0.00,,,0.00,Wunderground v.1.15,2013-04-15 09:25:00,
2013-04-15 05:35:00,28.9,27.1,30.28,ESE,109,0.0,0.0,93,0.00,,,0.00,Wunderground v.1.15,2013-04-15 09:35:00,
2013-04-15 05:40:00,28.7,26.9,30.28,ESE,109,0.0,0.0,93,0.00,,,0.00,Wunderground v.1.15,2013-04-15 09:40:00,
2013-04-15 05:45:00,28.7,26.9,30.29,ESE,109,0.0,0.0,93,0.00,,,0.00,Wunderground v.1.15,2013-04-15 09:45:00,
2013-04-15 05:50:00,28.7,27.2,30.29,ESE,109,0.0,0.0,94,0.00,,,0.00,Wunderground v.1.15,2013-04-15 09:50:00,
2013-04-15 05:55:00,28.6,27.1,30.29,ESE,109,0.0,0.0,94,0.00,,,0.00,Wunderground v.1.15,2013-04-15 09:55:00,
2013-04-15 06:00:00,28.5,27.0,30.29,ESE,109,0.0,0.0,94,0.00,,,0.00,Wunderground v.1.15,2013-04-15 10:00:00,
2013-04-15 06:05:00,28.5,27.0,30.30,ESE,109,0.0,0.0,94,0.00,,,0.00,Wunderground v.1.15,2013-04-15 10:05:00,
2013-04-15 06:15:00,28.7,27.4,30.30,ESE,109,0.0,0.0,95,0.00,,,0.00,Wunderground v.1.15,2013-04-15 10:15:00,
2013-04-15 06:25:00,28.7,27.2,30.31,ESE,109,0.0,0.0,94,0.00,,,0.00,Wunderground v.1.15,2013-04-15 10:25:00,
2013-04-15 06:30:00,28.6,27.1,30.31,ESE,109,0.0,0.0,94,0.00,,,0.00,Wunderground v.1.15,2013-04-15 10:30:00,
2013-04-15 06:40:00,28.8,27.5,30.32,ESE,109,0.0,0.0,95,0.00,,,0.00,Wunderground v.1.15,2013-04-15 10:40:00,
2013-04-15 06:45:00,28.9,27.6,30.32,ESE,109,0.0,0.0,95,0.00,,,0.00,Wunderground v.1.15,2013-04-15 10:45:00,
2013-04-15 06:55:00,29.2,27.9,30.33,ESE,109,0.0,0.0,95,0.00,,,0.00,Wunderground v.1.15,2013-04-15 10:55:00,
2013-04-15 07:05:00,29.6,28.3,30.33,ESE,109,0.0,0.0,95,0.00,,,0.00,Wunderground v.1.15,2013-04-15 11:05:00,
2013-04-15 07:15:00,30.2,29.2,30.34,ESE,109,0.0,0.0,96,0.00,,,0.00,Wunderground v.1.15,2013-04-15 11:15:00,
2013-04-15 07:20:00,30.8,29.8,30.34,ESE,109,0.0,0.0,96,0.00,,,0.00,Wunderground v.1.15,2013-04-15 11:20:00,
2013-04-15 07:25:00,31.4,30.4,30.34,ESE,110,0.0,1.0,96,0.00,,,0.00,Wunderground v.1.15,2013-04-15 11:25:00,
2013-04-15 07:35:00,32.3,31.0,30.34,ESE,110,0.0,1.0,95,0.00,,,0.00,Wunderground v.1.15,2013-04-15 11:35:00,
2013-04-15 07:40:00,32.7,31.4,30.34,ESE,110,0.0,0.0,95,0.00,,,0.00,Wunderground v.1.15,2013-04-15 11:40:00,
2013-04-15 07:50:00,33.8,32.0,30.35,ESE,110,0.0,0.0,93,0.00,,,0.00,Wunderground v.1.15,2013-04-15 11:50:00,
2013-04-15 07:55:00,34.4,32.3,30.35,ESE,110,0.0,0.0,92,0.00,,,0.00,Wunderground v.1.15,2013-04-15 11:55:00,
2013-04-15 08:00:00,35.2,32.8,30.35,ESE,110,0.0,0.0,91,0.00,,,0.00,Wunderground v.1.15,2013-04-15 12:00:00,
2013-04-15 08:05:00,36.1,33.2,30.35,ESE,110,0.0,0.0,89,0.00,,,0.00,Wunderground v.1.15,2013-04-15 12:05:00,
2013-04-15 08:15:00,37.6,33.8,30.35,ESE,111,0.0,0.0,86,0.00,,,0.00,Wunderground v.1.15,2013-04-15 12:15:00,
2013-04-15 08:20:00,38.0,33.6,30.35,ESE,111,0.0,0.0,84,0.00,,,0.00,Wunderground v.1.15,2013-04-15 12:20:00,
2013-04-15 08:25:00,38.7,34.6,30.35,ESE,111,0.0,0.0,85,0.00,,,0.00,Wunderground v.1.15,2013-04-15 12:25:00,
2013-04-15 08:30:00,39.4,34.7,30.36,ESE,110,0.0,2.0,83,0.00,,,0.00,Wunderground v.1.15,2013-04-15 12:30:00,
2013-04-15 08:40:00,40.2,34.2,30.36,SE,140,0.0,1.0,79,0.00,,,0.00,Wunderground v.1.15,2013-04-15 12:40:00,
2013-04-15 08:45:00,40.5,34.2,30.36,SE,141,0.0,1.0,78,0.00,,,0.00,Wunderground v.1.15,2013-04-15 12:45:00,
2013-04-15 08:55:00,41.4,34.7,30.36,SE,144,0.0,1.0,77,0.00,,,0.00,Wunderground v.1.15,2013-04-15 12:55:00,
2013-04-15 09:05:00,42.3,34.3,30.36,SSE,157,0.0,0.0,73,0.00,,,0.00,Wunderground v.1.15,2013-04-15 13:05:00,
2013-04-15 09:15:00,43.5,34.0,30.36,South,178,0.0,0.0,69,0.00,,,0.00,Wunderground v.1.15,2013-04-15 13:15:00,
2013-04-15 09:25:00,44.5,34.2,30.36,South,191,1.0,1.0,67,0.00,,,0.00,Wunderground v.1.15,2013-04-15 13:25:00,
2013-04-15 09:30:00,45.0,33.5,30.36,South,191,1.0,1.0,64,0.00,,,0.00,Wunderground v.1.15,2013-04-15 13:30:00,
2013-04-15 09:40:00,45.7,34.2,30.36,SSW,192,0.0,1.0,64,0.00,,,0.00,Wunderground v.1.15,2013-04-15 13:40:00,
2013-04-15 09:45:00,45.9,32.8,30.36,SW,229,1.0,1.0,60,0.00,,,0.00,Wunderground v.1.15,2013-04-15 13:45:00,
2013-04-15 09:55:00,46.4,33.3,30.36,SW,222,0.0,1.0,60,0.00,,,0.00,Wunderground v.1.15,2013-04-15 13:55:00,
2013-04-15 10:00:00,46.5,32.9,30.36,SW,222,0.0,0.0,59,0.00,,,0.00,Wunderground v.1.15,2013-04-15 14:00:00,
2013-04-15 10:05:00,46.6,32.6,30.36,SW,223,0.0,0.0,58,0.00,,,0.00,Wunderground v.1.15,2013-04-15 14:05:00,
2013-04-15 10:15:00,46.8,32.8,30.36,SW,223,0.0,0.0,58,0.00,,,0.00,Wunderground v.1.15,2013-04-15 14:15:00,
2013-04-15 10:20:00,47.0,33.4,30.36,SW,215,0.0,1.0,59,0.00,,,0.00,Wunderground v.1.15,2013-04-15 14:20:00,
2013-04-15 10:25:00,47.1,32.2,30.36,SSW,195,1.0,2.0,56,0.00,,,0.00,Wunderground v.1.15,2013-04-15 14:25:00,
2013-04-15 10:35:00,46.7,31.4,30.36,South,188,3.0,7.0,55,0.00,,,0.00,Wunderground v.1.15,2013-04-15 14:35:00,
2013-04-15 10:40:00,46.8,31.5,30.36,South,188,2.0,6.0,55,0.00,,,0.00,Wunderground v.1.15,2013-04-15 14:40:00,
2013-04-15 10:50:00,46.7,31.8,30.36,SSE,164,3.0,3.0,56,0.00,,,0.00,Wunderground v.1.15,2013-04-15 14:50:00,
2013-04-15 10:55:00,47.0,32.5,30.36,South,188,2.0,3.0,57,0.00,,,0.00,Wunderground v.1.15,2013-04-15 14:55:00,
2013-04-15 11:00:00,46.9,31.6,30.36,SSW,206,2.0,2.0,55,0.00,,,0.00,Wunderground v.1.15,2013-04-15 15:00:00,
2013-04-15 11:05:00,47.1,32.2,30.36,South,173,2.0,2.0,56,0.00,,,0.00,Wunderground v.1.15,2013-04-15 15:05:00,
2013-04-15 11:15:00,47.5,31.2,30.36,SSW,193,2.0,3.0,53,0.00,,,0.00,Wunderground v.1.15,2013-04-15 15:15:00,
2013-04-15 11:20:00,47.7,30.9,30.36,SW,214,2.0,2.0,52,0.00,,,0.00,Wunderground v.1.15,2013-04-15 15:20:00,
2013-04-15 11:25:00,48.1,31.3,30.36,South,179,1.0,2.0,52,0.00,,,0.00,Wunderground v.1.15,2013-04-15 15:25:00,
2013-04-15 11:35:00,48.6,33.1,30.35,SSE,166,2.0,4.0,55,0.00,,,0.00,Wunderground v.1.15,2013-04-15 15:35:00,
2013-04-15 11:45:00,49.0,32.1,30.35,SW,215,3.0,3.0,52,0.00,,,0.00,Wunderground v.1.15,2013-04-15 15:45:00,
2013-04-15 11:55:00,49.3,30.9,30.35,SW,227,3.0,3.0,49,0.00,,,0.00,Wunderground v.1.15,2013-04-15 15:55:00,
2013-04-15 12:05:00,49.7,31.8,30.35,South,178,2.0,3.0,50,0.00,,,0.00,Wunderground v.1.15,2013-04-15 16:05:00,
2013-04-15 12:15:00,50.6,33.1,30.34,SW,223,4.0,9.0,51,0.00,,,0.00,Wunderground v.1.15,2013-04-15 16:15:00,
2013-04-15 12:25:00,50.8,32.3,30.34,South,169,2.0,6.0,49,0.00,,,0.00,Wunderground v.1.15,2013-04-15 16:25:00,
2013-04-15 12:30:00,51.2,33.2,30.34,SE,143,1.0,1.0,50,0.00,,,0.00,Wunderground v.1.15,2013-04-15 16:30:00,
2013-04-15 12:40:00,51.6,32.0,30.33,North,360,3.0,3.0,47,0.00,,,0.00,Wunderground v.1.15,2013-04-15 16:40:00,
2013-04-15 12:45:00,51.9,32.3,30.33,SW,221,3.0,3.0,47,0.00,,,0.00,Wunderground v.1.15,2013-04-15 16:45:00,
2013-04-15 12:55:00,52.3,33.7,30.33,ENE,75,2.0,3.0,49,0.00,,,0.00,Wunderground v.1.15,2013-04-15 16:55:00,
2013-04-15 13:00:00,52.7,33.0,30.32,SSE,150,1.0,10.0,47,0.00,,,0.00,Wunderground v.1.15,2013-04-15 17:00:00,
2013-04-15 13:05:00,52.5,33.9,30.32,SSW,213,2.0,10.0,49,0.00,,,0.00,Wunderground v.1.15,2013-04-15 17:05:00,
2013-04-15 13:15:00,52.8,33.1,30.32,SSW,203,4.0,6.0,47,0.00,,,0.00,Wunderground v.1.15,2013-04-15 17:15:00,
2013-04-15 13:25:00,53.0,32.8,30.32,SW,219,2.0,3.0,46,0.00,,,0.00,Wunderground v.1.15,2013-04-15 17:25:00,
2013-04-15 13:30:00,53.2,31.8,30.32,SSW,205,1.0,2.0,44,0.00,,,0.00,Wunderground v.1.15,2013-04-15 17:30:00,
2013-04-15 13:35:00,53.5,34.8,30.32,South,188,2.0,4.0,49,0.00,,,0.00,Wunderground v.1.15,2013-04-15 17:35:00,
2013-04-15 13:40:00,53.6,32.8,30.32,SSW,210,2.0,6.0,45,0.00,,,0.00,Wunderground v.1.15,2013-04-15 17:40:00,
2013-04-15 13:50:00,54.0,34.7,30.32,South,186,3.0,3.0,48,0.00,,,0.00,Wunderground v.1.15,2013-04-15 17:50:00,
2013-04-15 14:00:00,54.0,32.6,30.32,SSE,161,3.0,3.0,44,0.00,,,0.00,Wunderground v.1.15,2013-04-15 18:00:00,
2013-04-15 14:05:00,54.2,32.7,30.32,SSW,202,3.0,3.0,44,0.00,,,0.00,Wunderground v.1.15,2013-04-15 18:05:00,
2013-04-15 14:15:00,54.4,32.3,30.31,North,349,1.0,3.0,43,0.00,,,0.00,Wunderground v.1.15,2013-04-15 18:15:00,
2013-04-15 14:20:00,54.8,32.7,30.31,SSW,198,1.0,2.0,43,0.00,,,0.00,Wunderground v.1.15,2013-04-15 18:20:00,
2013-04-15 14:25:00,55.1,33.0,30.31,SSW,204,1.0,3.0,43,0.00,,,0.00,Wunderground v.1.15,2013-04-15 18:25:00,
2013-04-15 14:30:00,55.1,33.6,30.31,South,181,3.0,3.0,44,0.00,,,0.00,Wunderground v.1.15,2013-04-15 18:30:00,
2013-04-15 14:35:00,55.1,32.4,30.31,South,170,2.0,3.0,42,0.00,,,0.00,Wunderground v.1.15,2013-04-15 18:35:00,
2013-04-15 14:40:00,55.2,32.5,30.31,SE,138,1.0,3.0,42,0.00,,,0.00,Wunderground v.1.15,2013-04-15 18:40:00,
2013-04-15 14:50:00,55.6,32.8,30.31,South,180,1.0,1.0,42,0.00,,,0.00,Wunderground v.1.15,2013-04-15 18:50:00,
2013-04-15 14:55:00,55.7,32.9,30.30,South,190,2.0,2.0,42,0.00,,,0.00,Wunderground v.1.15,2013-04-15 18:55:00,
2013-04-15 15:00:00,55.9,33.1,30.30,SSW,209,3.0,3.0,42,0.00,,,0.00,Wunderground v.1.15,2013-04-15 19:00:00,
2013-04-15 15:05:00,56.0,33.2,30.30,SSE,167,3.0,4.0,42,0.00,,,0.00,Wunderground v.1.15,2013-04-15 19:05:00,
2013-04-15 15:15:00,55.9,33.7,30.29,SSW,210,1.0,5.0,43,0.00,,,0.00,Wunderground v.1.15,2013-04-15 19:15:00,
2013-04-15 15:20:00,56.0,34.9,30.29,SSE,162,2.0,2.0,45,0.00,,,0.00,Wunderground v.1.15,2013-04-15 19:20:00,
2013-04-15 15:25:00,56.1,34.5,30.29,South,188,3.0,3.0,44,0.00,,,0.00,Wunderground v.1.15,2013-04-15 19:25:00,
2013-04-15 15:30:00,56.2,34.0,30.29,SSE,167,2.0,10.0,43,0.00,,,0.00,Wunderground v.1.15,2013-04-15 19:30:00,
2013-04-15 15:35:00,56.0,33.2,30.29,SE,136,2.0,10.0,42,0.00,,,0.00,Wunderground v.1.15,2013-04-15 19:35:00,
2013-04-15 15:40:00,56.1,33.3,30.28,South,190,2.0,2.0,42,0.00,,,0.00,Wunderground v.1.15,2013-04-15 19:40:00,
2013-04-15 15:50:00,56.9,33.4,30.28,South,189,2.0,2.0,41,0.00,,,0.00,Wunderground v.1.15,2013-04-15 19:50:00,
2013-04-15 15:55:00,57.0,34.1,30.27,SW,219,3.0,3.0,42,0.00,,,0.00,Wunderground v.1.15,2013-04-15 19:55:00,
2013-04-15 16:00:00,57.2,33.7,30.27,South,172,2.0,2.0,41,0.00,,,0.00,Wunderground v.1.15,2013-04-15 20:00:00,
2013-04-15 16:05:00,57.4,33.9,30.27,SE,143,1.0,2.0,41,0.00,,,0.00,Wunderground v.1.15,2013-04-15 20:05:00,
2013-04-15 16:15:00,57.2,33.7,30.27,SE,140,3.0,3.0,41,0.00,,,0.00,Wunderground v.1.15,2013-04-15 20:15:00,
2013-04-15 16:20:00,56.8,33.3,30.26,SSE,153,3.0,3.0,41,0.00,,,0.00,Wunderground v.1.15,2013-04-15 20:20:00,
2013-04-15 16:30:00,57.5,34.0,30.27,SE,137,2.0,4.0,41,0.00,,,0.00,Wunderground v.1.15,2013-04-15 20:30:00,
2013-04-15 16:35:00,57.5,34.0,30.27,SSE,150,2.0,4.0,41,0.00,,,0.00,Wunderground v.1.15,2013-04-15 20:35:00,
2013-04-15 16:45:00,57.7,34.1,30.27,SSE,161,1.0,1.0,41,0.00,,,0.00,Wunderground v.1.15,2013-04-15 20:45:00,
2013-04-15 16:50:00,57.9,33.7,30.27,SSE,161,1.0,1.0,40,0.00,,,0.00,Wunderground v.1.15,2013-04-15 20:50:00,
2013-04-15 16:55:00,57.8,34.2,30.27,South,190,1.0,4.0,41,0.00,,,0.00,Wunderground v.1.15,2013-04-15 20:55:00,
2013-04-15 17:05:00,57.9,34.3,30.27,ESE,122,2.0,2.0,41,0.00,,,0.00,Wunderground v.1.15,2013-04-15 21:05:00,
2013-04-15 17:15:00,58.0,34.4,30.27,ENE,63,2.0,2.0,41,0.00,,,0.00,Wunderground v.1.15,2013-04-15 21:15:00,
2013-04-15 17:20:00,58.2,34.6,30.27,South,175,1.0,3.0,41,0.00,,,0.00,Wunderground v.1.15,2013-04-15 21:20:00,
2013-04-15 17:30:00,57.7,34.7,30.27,SSE,150,4.0,5.0,42,0.00,,,0.00,Wunderground v.1.15,2013-04-15 21:30:00,
2013-04-15 17:35:00,57.6,35.2,30.27,South,172,3.0,6.0,43,0.00,,,0.00,Wunderground v.1.15,2013-04-15 21:35:00,
2013-04-15 17:45:00,57.1,34.8,30.27,SSE,167,4.0,7.0,43,0.00,,,0.00,Wunderground v.1.15,2013-04-15 21:45:00,
2013-04-15 17:50:00,57.2,35.5,30.27,SSE,161,3.0,3.0,44,0.00,,,0.00,Wunderground v.1.15,2013-04-15 21:50:00,
2013-04-15 17:55:00,57.2,34.9,30.27,SSE,154,3.0,4.0,43,0.00,,,0.00,Wunderground v.1.15,2013-04-15 21:55:00,
2013-04-15 18:05:00,56.7,34.4,30.27,South,169,4.0,5.0,43,0.00,,,0.00,Wunderground v.1.15,2013-04-15 22:05:00,
2013-04-15 18:15:00,56.1,33.9,30.28,SSE,165,5.0,5.0,43,0.00,,,0.00,Wunderground v.1.15,2013-04-15 22:15:00,
2013-04-15 18:20:00,56.0,34.4,30.28,SSE,148,5.0,5.0,44,0.00,,,0.00,Wunderground v.1.15,2013-04-15 22:20:00,
2013-04-15 18:30:00,55.7,34.1,30.28,SSE,159,4.0,9.0,44,0.00,,,0.00,Wunderground v.1.15,2013-04-15 22:30:00,
2013-04-15 18:35:00,55.5,34.5,30.28,SSE,148,4.0,9.0,45,0.00,,,0.00,Wunderground v.1.15,2013-04-15 22:35:00,
2013-04-15 18:40:00,55.4,33.8,30.28,SSE,156,3.0,3.0,44,0.00,,,0.00,Wunderground v.1.15,2013-04-15 22:40:00,
2013-04-15 18:50:00,55.0,34.0,30.30,SE,129,2.0,5.0,45,0.00,,,0.00,Wunderground v.1.15,2013-04-15 22:50:00,
2013-04-15 18:55:00,54.8,34.4,30.30,SSE,157,2.0,5.0,46,0.00,,,0.00,Wunderground v.1.15,2013-04-15 22:55:00,
2013-04-15 19:05:00,54.4,34.6,30.30,SSE,149,1.0,4.0,47,0.00,,,0.00,Wunderground v.1.15,2013-04-15 23:05:00,
2013-04-15 19:15:00,53.4,35.7,30.31,SSE,162,3.0,5.0,51,0.00,,,0.00,Wunderground v.1.15,2013-04-15 23:15:00,
2013-04-15 19:20:00,52.7,36.0,30.31,SSE,158,4.0,5.0,53,0.00,,,0.00,Wunderground v.1.15,2013-04-15 23:20:00,
2013-04-15 19:25:00,52.2,36.0,30.31,South,186,3.0,5.0,54,0.00,,,0.00,Wunderground v.1.15,2013-04-15 23:25:00,
2013-04-15 19:35:00,51.3,36.1,30.31,SE,144,3.0,4.0,56,0.00,,,0.00,Wunderground v.1.15,2013-04-15 23:35:00,
2013-04-15 19:40:00,51.0,36.3,30.31,SSE,153,2.0,2.0,57,0.00,,,0.00,Wunderground v.1.15,2013-04-15 23:40:00,
2013-04-15 19:50:00,50.4,36.2,30.31,South,173,1.0,1.0,58,0.00,,,0.00,Wunderground v.1.15,2013-04-15 23:50:00,
2013-04-15 19:55:00,50.0,36.2,30.31,South,179,1.0,1.0,59,0.00,,,0.00,Wunderground v.1.15,2013-04-15 23:55:00,
2013-04-15 20:00:00,49.6,35.8,30.31,SSE,159,2.0,2.0,59,0.00,,,0.00,Wunderground v.1.15,2013-04-16 00:00:00,
2013-04-15 20:05:00,49.2,35.9,30.32,SSE,163,1.0,2.0,60,0.00,,,0.00,Wunderground v.1.15,2013-04-16 00:05:00,
2013-04-15 20:15:00,48.6,35.7,30.33,SSE,157,2.0,2.0,61,0.00,,,0.00,Wunderground v.1.15,2013-04-16 00:15:00,
2013-04-15 20:25:00,48.1,35.7,30.34,North,9,1.0,1.0,62,0.00,,,0.00,Wunderground v.1.15,2013-04-16 00:25:00,
2013-04-15 20:35:00,47.3,35.7,30.35,SSW,195,1.0,2.0,64,0.00,,,0.00,Wunderground v.1.15,2013-04-16 00:35:00,
2013-04-15 20:40:00,47.0,35.8,30.34,SSW,192,1.0,1.0,65,0.00,,,0.00,Wunderground v.1.15,2013-04-16 00:40:00,
2013-04-15 20:45:00,46.7,35.6,30.34,SSE,165,1.0,1.0,65,0.00,,,0.00,Wunderground v.1.15,2013-04-16 00:45:00,
2013-04-15 20:55:00,46.2,35.5,30.35,SSE,150,1.0,1.0,66,0.00,,,0.00,Wunderground v.1.15,2013-04-16 00:55:00,
2013-04-15 21:00:00,45.9,35.2,30.35,SSE,147,1.0,1.0,66,0.00,,,0.00,Wunderground v.1.15,2013-04-16 01:00:00,
2013-04-15 21:05:00,45.8,35.5,30.35,SE,146,1.0,1.0,67,0.00,,,0.00,Wunderground v.1.15,2013-04-16 01:05:00,
2013-04-15 21:15:00,45.1,35.2,30.35,East,93,0.0,0.0,68,0.00,,,0.00,Wunderground v.1.15,2013-04-16 01:15:00,
2013-04-15 21:25:00,44.8,35.2,30.35,NNE,33,0.0,0.0,69,0.00,,,0.00,Wunderground v.1.15,2013-04-16 01:25:00,
2013-04-15 21:30:00,44.7,35.1,30.35,NE,38,1.0,1.0,69,0.00,,,0.00,Wunderground v.1.15,2013-04-16 01:30:00,
2013-04-15 21:40:00,44.3,34.8,30.35,NE,38,0.0,0.0,69,0.00,,,0.00,Wunderground v.1.15,2013-04-16 01:40:00,
2013-04-15 21:45:00,44.1,34.9,30.35,NE,38,0.0,0.0,70,0.00,,,0.00,Wunderground v.1.15,2013-04-16 01:45:00,
2013-04-15 21:50:00,43.8,35.0,30.35,NE,38,0.0,0.0,71,0.00,,,0.00,Wunderground v.1.15,2013-04-16 01:50:00,
2013-04-15 22:00:00,43.0,34.6,30.34,NE,38,0.0,0.0,72,0.00,,,0.00,Wunderground v.1.15,2013-04-16 02:00:00,
2013-04-15 22:05:00,42.7,34.6,30.34,NE,38,0.0,0.0,73,0.00,,,0.00,Wunderground v.1.15,2013-04-16 02:05:00,
2013-04-15 22:15:00,41.9,34.9,30.35,NE,38,0.0,0.0,76,0.00,,,0.00,Wunderground v.1.15,2013-04-16 02:15:00,
2013-04-15 22:25:00,41.6,34.6,30.36,NE,38,0.0,1.0,76,0.00,,,0.00,Wunderground v.1.15,2013-04-16 02:25:00,
2013-04-15 22:30:00,41.6,34.6,30.36,NE,38,0.0,1.0,76,0.00,,,0.00,Wunderground v.1.15,2013-04-16 02:30:00,
2013-04-15 22:35:00,41.4,34.7,30.35,NE,38,0.0,1.0,77,0.00,,,0.00,Wunderground v.1.15,2013-04-16 02:35:00,
2013-04-15 22:45:00,40.8,35.1,30.35,NE,38,0.0,0.0,80,0.00,,,0.00,Wunderground v.1.15,2013-04-16 02:45:00,
2013-04-15 22:50:00,40.4,34.7,30.35,NE,38,0.0,0.0,80,0.00,,,0.00,Wunderground v.1.15,2013-04-16 02:50:00,
2013-04-15 23:00:00,39.7,34.3,30.35,NE,38,0.0,0.0,81,0.00,,,0.00,Wunderground v.1.15,2013-04-16 03:00:00,
2013-04-15 23:05:00,39.5,34.2,30.35,NE,38,0.0,0.0,81,0.00,,,0.00,Wunderground v.1.15,2013-04-16 03:05:00,
2013-04-15 23:15:00,39.2,34.2,30.36,NE,38,0.0,0.0,82,0.00,,,0.00,Wunderground v.1.15,2013-04-16 03:15:00,
2013-04-15 23:20:00,39.0,34.3,30.36,NE,38,0.0,0.0,83,0.00,,,0.00,Wunderground v.1.15,2013-04-16 03:20:00,
2013-04-15 23:30:00,38.4,34.0,30.36,NE,38,0.0,0.0,84,0.00,,,0.00,Wunderground v.1.15,2013-04-16 03:30:00,
2013-04-15 23:35:00,38.1,33.7,30.36,NE,38,0.0,0.0,84,0.00,,,0.00,Wunderground v.1.15,2013-04-16 03:35:00,
2013-04-15 23:45:00,37.8,34.0,30.36,NE,38,0.0,0.0,86,0.00,,,0.00,Wunderground v.1.15,2013-04-16 03:45:00,
2013-04-15 23:50:00,37.7,33.9,30.36,NE,38,0.0,0.0,86,0.00,,,0.00,Wunderground v.1.15,2013-04-16 03:50:00,
2013-04-15 23:55:00,37.5,33.7,30.36,NE,38,0.0,0.0,86,0.00,,,0.00,Wunderground v.1.15,2013-04-16 03:55:00,